sensor_id;sensor_type;location;lat;lon;timestamp;pressure;altitude;pressure_sealevel;temperature;humidity
30730;BME280;17476;48.458;7.928;2022-12-07T00:01:26;100179.66;;;5.91;97.80
30730;BME280;17476;48.458;7.928;2022-12-07T00:03:54;100176.22;;;5.90;97.84
30730;BME280;17476;48.458;7.928;2022-12-07T00:06:26;100171.03;;;5.90;97.83
30730;BME280;17476;48.458;7.928;2022-12-07T00:08:52;100173.50;;;5.92;97.90
30730;BME280;17476;48.458;7.928;2022-12-07T00:11:20;100175.97;;;5.93;97.72
30730;BME280;17476;48.458;7.928;2022-12-07T00:13:51;100171.59;;;5.94;98.35
30730;BME280;17476;48.458;7.928;2022-12-07T00:16:20;100173.25;;;5.95;97.81
30730;BME280;17476;48.458;7.928;2022-12-07T00:18:46;100173.25;;;5.95;98.13
30730;BME280;17476;48.458;7.928;2022-12-07T00:21:16;100170.66;;;5.95;98.71
30730;BME280;17476;48.458;7.928;2022-12-07T00:23:44;100166.19;;;5.97;98.26
30730;BME280;17476;48.458;7.928;2022-12-07T00:26:17;100164.63;;;5.94;98.37
30730;BME280;17476;48.458;7.928;2022-12-07T00:28:49;100167.22;;;5.94;98.14
30730;BME280;17476;48.458;7.928;2022-12-07T00:31:18;100158.03;;;5.90;98.50
30730;BME280;17476;48.458;7.928;2022-12-07T00:33:44;100162.41;;;5.90;98.78
30730;BME280;17476;48.458;7.928;2022-12-07T00:36:15;100166.56;;;5.92;98.87
30730;BME280;17476;48.458;7.928;2022-12-07T00:38:41;100166.56;;;5.92;98.14
30730;BME280;17476;48.458;7.928;2022-12-07T00:41:12;100155.44;;;5.90;98.17
30730;BME280;17476;48.458;7.928;2022-12-07T00:43:40;100157.13;;;5.91;97.87
30730;BME280;17476;48.458;7.928;2022-12-07T00:46:06;100151.09;;;5.91;98.64
30730;BME280;17476;48.458;7.928;2022-12-07T00:48:32;100153.56;;;5.92;98.69
30730;BME280;17476;48.458;7.928;2022-12-07T00:50:59;100151.22;;;5.89;98.06
30730;BME280;17476;48.458;7.928;2022-12-07T00:53:25;100153.88;;;5.78;98.24
30730;BME280;17476;48.458;7.928;2022-12-07T00:55:51;100154.38;;;5.72;98.81
30730;BME280;17476;48.458;7.928;2022-12-07T00:58:19;100150.00;;;5.72;99.26
30730;BME280;17476;48.458;7.928;2022-12-07T01:00:45;100155.88;;;5.74;99.65
30730;BME280;17476;48.458;7.928;2022-12-07T01:03:13;100153.88;;;5.78;99.24
30730;BME280;17476;48.458;7.928;2022-12-07T01:05:49;100144.44;;;5.77;99.18
30730;BME280;17476;48.458;7.928;2022-12-07T01:08:15;100155.47;;;5.69;98.95
30730;BME280;17476;48.458;7.928;2022-12-07T01:10:41;100153.94;;;5.67;99.51
30730;BME280;17476;48.458;7.928;2022-12-07T01:13:07;100143.81;;;5.64;99.90
30730;BME280;17476;48.458;7.928;2022-12-07T01:15:32;100152.28;;;5.66;99.35
30730;BME280;17476;48.458;7.928;2022-12-07T01:17:58;100156.38;;;5.68;100.00
30730;BME280;17476;48.458;7.928;2022-12-07T01:20:24;100155.47;;;5.69;100.00
30730;BME280;17476;48.458;7.928;2022-12-07T01:22:50;100159.13;;;5.67;98.82
30730;BME280;17476;48.458;7.928;2022-12-07T01:25:16;100162.53;;;5.67;99.59
30730;BME280;17476;48.458;7.928;2022-12-07T01:27:42;100164.31;;;5.67;99.45
30730;BME280;17476;48.458;7.928;2022-12-07T01:30:10;100165.13;;;5.67;100.00
30730;BME280;17476;48.458;7.928;2022-12-07T01:32:36;100166.44;;;5.62;99.87
30730;BME280;17476;48.458;7.928;2022-12-07T01:35:02;100162.03;;;5.53;98.87
30730;BME280;17476;48.458;7.928;2022-12-07T01:37:30;100173.31;;;5.31;99.81
30730;BME280;17476;48.458;7.928;2022-12-07T01:39:59;100164.00;;;5.28;100.00
30730;BME280;17476;48.458;7.928;2022-12-07T01:42:24;100168.00;;;5.32;100.00
30730;BME280;17476;48.458;7.928;2022-12-07T01:47:52;100181.06;;;5.42;100.00
30730;BME280;17476;48.458;7.928;2022-12-07T01:50:20;100179.28;;;5.42;100.00
30730;BME280;17476;48.458;7.928;2022-12-07T01:52:49;100184.22;;;5.45;100.00
30730;BME280;17476;48.458;7.928;2022-12-07T01:55:17;100183.97;;;5.48;100.00
30730;BME280;17476;48.458;7.928;2022-12-07T01:57:49;100185.50;;;5.51;100.00
30730;BME280;17476;48.458;7.928;2022-12-07T02:00:17;100181.81;;;5.54;100.00
30730;BME280;17476;48.458;7.928;2022-12-07T02:02:53;100179.34;;;5.52;100.00
30730;BME280;17476;48.458;7.928;2022-12-07T02:05:23;100180.88;;;5.55;99.92
30730;BME280;17476;48.458;7.928;2022-12-07T02:07:52;100175.81;;;5.53;100.00
30730;BME280;17476;48.458;7.928;2022-12-07T02:10:22;100183.59;;;5.53;100.00
30730;BME280;17476;48.458;7.928;2022-12-07T02:13:01;100178.41;;;5.53;100.00
30730;BME280;17476;48.458;7.928;2022-12-07T02:35:46;100172.91;;;5.14;100.00
30730;BME280;17476;48.458;7.928;2022-12-07T02:38:27;100161.94;;;5.22;100.00
30730;BME280;17476;48.458;7.928;2022-12-07T02:43:51;100156.50;;;5.25;100.00
30730;BME280;17476;48.458;7.928;2022-12-07T02:46:27;100156.22;;;5.28;100.00
30730;BME280;17476;48.458;7.928;2022-12-07T02:48:55;100155.72;;;5.34;100.00
30730;BME280;17476;48.458;7.928;2022-12-07T02:51:22;100152.31;;;5.34;100.00
30730;BME280;17476;48.458;7.928;2022-12-07T02:53:48;100143.72;;;5.33;100.00
30730;BME280;17476;48.458;7.928;2022-12-07T03:05:48;100143.34;;;5.38;100.00
30730;BME280;17476;48.458;7.928;2022-12-07T03:11:21;100137.34;;;5.37;100.00
30730;BME280;17476;48.458;7.928;2022-12-07T03:16:49;100149.31;;;5.29;100.00
30730;BME280;17476;48.458;7.928;2022-12-07T03:19:20;100151.19;;;5.27;100.00
30730;BME280;17476;48.458;7.928;2022-12-07T03:21:56;100145.16;;;5.26;100.00
30730;BME280;17476;48.458;7.928;2022-12-07T03:24:29;100146.00;;;5.27;100.00
30730;BME280;17476;48.458;7.928;2022-12-07T03:27:16;100146.25;;;5.24;100.00
30730;BME280;17476;48.458;7.928;2022-12-07T03:30:07;100129.41;;;5.18;100.00
30730;BME280;17476;48.458;7.928;2022-12-07T03:32:41;100141.22;;;5.11;99.51
30730;BME280;17476;48.458;7.928;2022-12-07T03:37:36;100135.75;;;4.93;98.77
30730;BME280;17476;48.458;7.928;2022-12-07T03:42:57;100150.28;;;4.73;98.03
30730;BME280;17476;48.458;7.928;2022-12-07T03:45:43;100150.06;;;4.65;97.43
30730;BME280;17476;48.458;7.928;2022-12-07T03:48:36;100146.19;;;4.59;97.68
30730;BME280;17476;48.458;7.928;2022-12-07T03:56:43;100136.47;;;4.41;98.26
30730;BME280;17476;48.458;7.928;2022-12-07T03:59:12;100135.72;;;4.38;98.07
30730;BME280;17476;48.458;7.928;2022-12-07T04:01:41;100136.94;;;4.34;98.78
30730;BME280;17476;48.458;7.928;2022-12-07T04:04:08;100142.31;;;4.31;98.63
30730;BME280;17476;48.458;7.928;2022-12-07T04:06:33;100137.41;;;4.28;98.60
30730;BME280;17476;48.458;7.928;2022-12-07T04:08:59;100131.50;;;4.26;98.92
30730;BME280;17476;48.458;7.928;2022-12-07T04:11:25;100137.63;;;4.25;98.80
30730;BME280;17476;48.458;7.928;2022-12-07T04:13:51;100145.63;;;4.22;99.05
30730;BME280;17476;48.458;7.928;2022-12-07T04:16:35;100142.22;;;4.22;99.51
30730;BME280;17476;48.458;7.928;2022-12-07T04:19:01;100137.03;;;4.22;99.50
30730;BME280;17476;48.458;7.928;2022-12-07T04:21:27;100139.50;;;4.23;99.59
30730;BME280;17476;48.458;7.928;2022-12-07T04:23:53;100133.38;;;4.24;99.62
30730;BME280;17476;48.458;7.928;2022-12-07T04:26:19;100128.91;;;4.26;100.00
30730;BME280;17476;48.458;7.928;2022-12-07T04:28:45;100127.50;;;4.22;100.00
30730;BME280;17476;48.458;7.928;2022-12-07T04:31:10;100118.78;;;4.12;100.00
30730;BME280;17476;48.458;7.928;2022-12-07T04:33:36;100128.81;;;3.94;100.00
30730;BME280;17476;48.458;7.928;2022-12-07T04:36:02;100129.03;;;3.91;100.00
30730;BME280;17476;48.458;7.928;2022-12-07T04:38:28;100137.03;;;3.99;100.00
30730;BME280;17476;48.458;7.928;2022-12-07T04:40:54;100128.44;;;4.10;100.00
30730;BME280;17476;48.458;7.928;2022-12-07T04:43:20;100125.28;;;4.18;100.00
30730;BME280;17476;48.458;7.928;2022-12-07T04:45:49;100123.16;;;4.11;100.00
30730;BME280;17476;48.458;7.928;2022-12-07T04:48:16;100123.03;;;4.13;100.00
30730;BME280;17476;48.458;7.928;2022-12-07T04:50:42;100129.50;;;4.19;100.00
30730;BME280;17476;48.458;7.928;2022-12-07T04:53:07;100125.63;;;4.24;100.00
30730;BME280;17476;48.458;7.928;2022-12-07T04:55:33;100133.16;;;4.27;100.00
30730;BME280;17476;48.458;7.928;2022-12-07T04:57:59;100131.97;;;4.31;100.00
30730;BME280;17476;48.458;7.928;2022-12-07T05:00:26;100131.84;;;4.33;100.00
30730;BME280;17476;48.458;7.928;2022-12-07T05:02:53;100125.28;;;4.29;100.00
30730;BME280;17476;48.458;7.928;2022-12-07T05:05:19;100124.69;;;4.25;100.00
30730;BME280;17476;48.458;7.928;2022-12-07T05:07:45;100130.56;;;4.16;100.00
30730;BME280;17476;48.458;7.928;2022-12-07T05:10:10;100141.13;;;4.13;100.00
30730;BME280;17476;48.458;7.928;2022-12-07T05:12:36;100138.69;;;4.11;100.00
30730;BME280;17476;48.458;7.928;2022-12-07T05:15:03;100128.06;;;3.92;99.96
30730;BME280;17476;48.458;7.928;2022-12-07T05:17:29;100143.97;;;3.88;100.00
30730;BME280;17476;48.458;7.928;2022-12-07T05:19:54;100148.06;;;3.90;100.00
30730;BME280;17476;48.458;7.928;2022-12-07T05:22:20;100131.72;;;3.90;100.00
30730;BME280;17476;48.458;7.928;2022-12-07T05:24:47;100125.72;;;3.89;100.00
30730;BME280;17476;48.458;7.928;2022-12-07T05:27:12;100133.97;;;3.94;100.00
30730;BME280;17476;48.458;7.928;2022-12-07T05:29:38;100135.63;;;3.95;100.00
30730;BME280;17476;48.458;7.928;2022-12-07T05:32:04;100140.19;;;3.92;100.00
30730;BME280;17476;48.458;7.928;2022-12-07T05:34:30;100136.28;;;3.86;100.00
30730;BME280;17476;48.458;7.928;2022-12-07T05:36:56;100137.69;;;3.79;100.00
30730;BME280;17476;48.458;7.928;2022-12-07T05:39:22;100135.81;;;3.70;99.91
30730;BME280;17476;48.458;7.928;2022-12-07T05:41:48;100137.53;;;3.47;100.00
30730;BME280;17476;48.458;7.928;2022-12-07T05:44:32;100140.22;;;3.45;100.00
30730;BME280;17476;48.458;7.928;2022-12-07T05:46:58;100149.63;;;3.46;100.00
30730;BME280;17476;48.458;7.928;2022-12-07T05:49:24;100144.47;;;3.46;100.00
30730;BME280;17476;48.458;7.928;2022-12-07T05:51:50;100144.34;;;3.48;100.00
30730;BME280;17476;48.458;7.928;2022-12-07T05:54:19;100137.28;;;3.39;100.00
30730;BME280;17476;48.458;7.928;2022-12-07T05:56:44;100138.16;;;3.26;100.00
30730;BME280;17476;48.458;7.928;2022-12-07T05:59:10;100142.72;;;3.23;100.00
30730;BME280;17476;48.458;7.928;2022-12-07T06:02:12;100146.38;;;3.32;100.00
30730;BME280;17476;48.458;7.928;2022-12-07T06:04:42;100146.75;;;3.38;100.00
30730;BME280;17476;48.458;7.928;2022-12-07T06:07:10;100148.44;;;3.39;100.00
30730;BME280;17476;48.458;7.928;2022-12-07T06:09:37;100150.09;;;3.40;100.00
30730;BME280;17476;48.458;7.928;2022-12-07T06:12:04;100153.97;;;3.46;100.00
30730;BME280;17476;48.458;7.928;2022-12-07T06:14:49;100148.56;;;3.49;100.00
30730;BME280;17476;48.458;7.928;2022-12-07T06:17:15;100156.44;;;3.47;100.00
30730;BME280;17476;48.458;7.928;2022-12-07T06:19:41;100150.66;;;3.44;100.00
30730;BME280;17476;48.458;7.928;2022-12-07T06:22:08;100157.97;;;3.39;100.00
30730;BME280;17476;48.458;7.928;2022-12-07T06:24:35;100163.72;;;3.42;100.00
30730;BME280;17476;48.458;7.928;2022-12-07T06:27:01;100160.81;;;3.47;100.00
30730;BME280;17476;48.458;7.928;2022-12-07T06:29:27;100163.63;;;3.55;100.00
30730;BME280;17476;48.458;7.928;2022-12-07T06:31:53;100159.91;;;3.59;100.00
30730;BME280;17476;48.458;7.928;2022-12-07T06:34:21;100161.63;;;3.47;100.00
30730;BME280;17476;48.458;7.928;2022-12-07T06:36:49;100158.09;;;3.48;100.00
30730;BME280;17476;48.458;7.928;2022-12-07T06:39:18;100161.25;;;3.52;100.00
30730;BME280;17476;48.458;7.928;2022-12-07T06:41:44;100161.31;;;3.63;100.00
30730;BME280;17476;48.458;7.928;2022-12-07T06:44:10;100160.84;;;3.69;100.00
30730;BME280;17476;48.458;7.928;2022-12-07T06:46:36;100157.56;;;3.78;100.00
30730;BME280;17476;48.458;7.928;2022-12-07T06:49:04;100157.25;;;3.83;100.00
30730;BME280;17476;48.458;7.928;2022-12-07T06:51:31;100161.34;;;3.86;100.00
30730;BME280;17476;48.458;7.928;2022-12-07T06:53:57;100164.41;;;3.91;100.00
30730;BME280;17476;48.458;7.928;2022-12-07T06:56:23;100155.47;;;3.83;99.72
30730;BME280;17476;48.458;7.928;2022-12-07T06:58:49;100160.66;;;3.83;100.00
30730;BME280;17476;48.458;7.928;2022-12-07T07:01:17;100160.19;;;3.90;100.00
30730;BME280;17476;48.458;7.928;2022-12-07T07:03:45;100156.16;;;3.74;98.92
30730;BME280;17476;48.458;7.928;2022-12-07T07:06:12;100162.13;;;3.64;100.00
30730;BME280;17476;48.458;7.928;2022-12-07T07:08:39;100163.06;;;3.63;100.00
30730;BME280;17476;48.458;7.928;2022-12-07T07:11:06;100166.94;;;3.57;100.00
30730;BME280;17476;48.458;7.928;2022-12-07T07:13:33;100165.72;;;3.50;100.00
30730;BME280;17476;48.458;7.928;2022-12-07T07:15:59;100172.34;;;3.54;100.00
30730;BME280;17476;48.458;7.928;2022-12-07T07:18:25;100159.09;;;3.70;100.00
30730;BME280;17476;48.458;7.928;2022-12-07T07:20:52;100156.41;;;3.82;100.00
30730;BME280;17476;48.458;7.928;2022-12-07T07:23:19;100164.97;;;3.72;100.00
30730;BME280;17476;48.458;7.928;2022-12-07T07:25:46;100160.28;;;3.77;100.00
30730;BME280;17476;48.458;7.928;2022-12-07T07:28:12;100170.78;;;3.87;100.00
30730;BME280;17476;48.458;7.928;2022-12-07T07:30:38;100173.00;;;3.91;100.00
30730;BME280;17476;48.458;7.928;2022-12-07T07:33:04;100167.50;;;3.96;100.00
30730;BME280;17476;48.458;7.928;2022-12-07T07:35:33;100168.06;;;3.88;100.00
30730;BME280;17476;48.458;7.928;2022-12-07T07:38:00;100175.94;;;3.98;100.00
30730;BME280;17476;48.458;7.928;2022-12-07T07:40:27;100174.06;;;3.89;99.78
30730;BME280;17476;48.458;7.928;2022-12-07T07:42:55;100178.19;;;3.80;99.90
30730;BME280;17476;48.458;7.928;2022-12-07T07:45:24;100173.91;;;3.68;100.00
30730;BME280;17476;48.458;7.928;2022-12-07T07:47:50;100179.94;;;3.79;100.00
30730;BME280;17476;48.458;7.928;2022-12-07T07:50:17;100185.13;;;3.91;100.00
30730;BME280;17476;48.458;7.928;2022-12-07T07:52:44;100181.84;;;4.00;100.00
30730;BME280;17476;48.458;7.928;2022-12-07T07:55:10;100179.81;;;3.92;100.00
30730;BME280;17476;48.458;7.928;2022-12-07T07:57:37;100180.44;;;3.96;100.00
30730;BME280;17476;48.458;7.928;2022-12-07T08:00:11;100187.16;;;4.09;100.00
30730;BME280;17476;48.458;7.928;2022-12-07T08:02:37;100189.03;;;4.19;100.00
30730;BME280;17476;48.458;7.928;2022-12-07T08:05:04;100179.28;;;4.22;100.00
30730;BME280;17476;48.458;7.928;2022-12-07T08:07:30;100182.69;;;4.23;100.00
30730;BME280;17476;48.458;7.928;2022-12-07T08:09:56;100180.94;;;4.34;100.00
30730;BME280;17476;48.458;7.928;2022-12-07T08:12:22;100194.81;;;4.45;100.00
30730;BME280;17476;48.458;7.928;2022-12-07T08:14:47;100200.91;;;4.32;100.00
30730;BME280;17476;48.458;7.928;2022-12-07T08:17:13;100197.66;;;4.42;100.00
30730;BME280;17476;48.458;7.928;2022-12-07T08:19:39;100198.13;;;4.35;99.35
30730;BME280;17476;48.458;7.928;2022-12-07T08:22:05;100190.34;;;4.35;100.00
30730;BME280;17476;48.458;7.928;2022-12-07T08:24:34;100188.91;;;4.31;100.00
30730;BME280;17476;48.458;7.928;2022-12-07T08:27:02;100195.16;;;4.18;98.97
30730;BME280;17476;48.458;7.928;2022-12-07T08:29:29;100196.81;;;4.30;100.00
30730;BME280;17476;48.458;7.928;2022-12-07T08:31:55;100195.16;;;4.29;100.00
30730;BME280;17476;48.458;7.928;2022-12-07T08:34:21;100213.53;;;4.37;100.00
30730;BME280;17476;48.458;7.928;2022-12-07T08:36:47;100202.47;;;4.57;100.00
30730;BME280;17476;48.458;7.928;2022-12-07T08:39:13;100198.22;;;4.68;100.00
30730;BME280;17476;48.458;7.928;2022-12-07T08:41:39;100196.69;;;4.76;100.00
30730;BME280;17476;48.458;7.928;2022-12-07T08:44:05;100198.56;;;4.74;100.00
30730;BME280;17476;48.458;7.928;2022-12-07T08:46:39;100191.84;;;4.83;100.00
30730;BME280;17476;48.458;7.928;2022-12-07T08:49:16;100190.53;;;4.88;100.00
30730;BME280;17476;48.458;7.928;2022-12-07T08:51:44;100184.16;;;4.92;100.00
30730;BME280;17476;48.458;7.928;2022-12-07T08:54:16;100181.44;;;4.94;98.99
30730;BME280;17476;48.458;7.928;2022-12-07T08:56:44;100182.50;;;4.91;98.50
30730;BME280;17476;48.458;7.928;2022-12-07T08:59:15;100177.34;;;4.91;99.62
30730;BME280;17476;48.458;7.928;2022-12-07T09:01:42;100179.19;;;5.01;100.00
30730;BME280;17476;48.458;7.928;2022-12-07T09:04:08;100172.97;;;4.92;98.80
30730;BME280;17476;48.458;7.928;2022-12-07T09:06:34;100177.19;;;4.93;99.11
30730;BME280;17476;48.458;7.928;2022-12-07T09:09:01;100180.38;;;4.97;100.00
30730;BME280;17476;48.458;7.928;2022-12-07T09:11:28;100191.78;;;5.05;99.03
30730;BME280;17476;48.458;7.928;2022-12-07T09:13:56;100191.97;;;4.81;95.70
30730;BME280;17476;48.458;7.928;2022-12-07T09:16:22;100193.16;;;4.77;96.45
30730;BME280;17476;48.458;7.928;2022-12-07T09:18:48;100192.19;;;4.89;98.44
30730;BME280;17476;48.458;7.928;2022-12-07T09:21:14;100190.47;;;5.11;100.00
30730;BME280;17476;48.458;7.928;2022-12-07T09:23:42;100194.47;;;5.15;96.73
30730;BME280;17476;48.458;7.928;2022-12-07T09:26:08;100194.31;;;5.28;98.99
30730;BME280;17476;48.458;7.928;2022-12-07T09:28:34;100191.94;;;5.36;99.97
30730;BME280;17476;48.458;7.928;2022-12-07T09:31:00;100191.75;;;5.48;98.47
30730;BME280;17476;48.458;7.928;2022-12-07T09:33:26;100194.56;;;5.57;98.87
30730;BME280;17476;48.458;7.928;2022-12-07T09:35:52;100190.44;;;5.75;98.14
30730;BME280;17476;48.458;7.928;2022-12-07T09:38:19;100189.50;;;5.76;96.94
30730;BME280;17476;48.458;7.928;2022-12-07T09:40:46;100192.78;;;5.78;96.46
30730;BME280;17476;48.458;7.928;2022-12-07T09:43:22;100188.66;;;5.75;95.13
30730;BME280;17476;48.458;7.928;2022-12-07T09:45:52;100189.28;;;5.89;96.78
30730;BME280;17476;48.458;7.928;2022-12-07T09:48:32;100189.41;;;5.98;97.16
30730;BME280;17476;48.458;7.928;2022-12-07T09:51:00;100197.34;;;5.65;91.65
30730;BME280;17476;48.458;7.928;2022-12-07T09:53:37;100197.06;;;5.47;92.38
30730;BME280;17476;48.458;7.928;2022-12-07T09:56:04;100190.09;;;5.47;91.04
30730;BME280;17476;48.458;7.928;2022-12-07T09:58:32;100195.88;;;5.51;93.43
30730;BME280;17476;48.458;7.928;2022-12-07T10:03:36;100189.44;;;5.66;93.55
30730;BME280;17476;48.458;7.928;2022-12-07T10:06:05;100173.53;;;5.81;94.61
30730;BME280;17476;48.458;7.928;2022-12-07T10:08:32;100179.25;;;5.95;97.24
30730;BME280;17476;48.458;7.928;2022-12-07T10:11:01;100177.78;;;6.02;93.61
30730;BME280;17476;48.458;7.928;2022-12-07T10:13:41;100161.84;;;6.07;95.70
30730;BME280;17476;48.458;7.928;2022-12-07T10:16:39;100169.25;;;6.12;94.61
30730;BME280;17476;48.458;7.928;2022-12-07T10:24:29;100165.78;;;6.72;97.30
30730;BME280;17476;48.458;7.928;2022-12-07T10:26:55;100164.53;;;6.67;90.84
30730;BME280;17476;48.458;7.928;2022-12-07T10:29:24;100160.44;;;6.64;90.19
30730;BME280;17476;48.458;7.928;2022-12-07T10:34:42;100149.78;;;6.77;91.50
30730;BME280;17476;48.458;7.928;2022-12-07T10:37:17;100142.19;;;6.54;86.88
30730;BME280;17476;48.458;7.928;2022-12-07T10:39:53;100135.94;;;6.17;87.60
30730;BME280;17476;48.458;7.928;2022-12-07T10:42:22;100136.25;;;6.02;88.56
30730;BME280;17476;48.458;7.928;2022-12-07T10:45:35;100137.44;;;6.19;91.43
30730;BME280;17476;48.458;7.928;2022-12-07T10:48:13;100128.25;;;6.46;93.03
30730;BME280;17476;48.458;7.928;2022-12-07T10:57:28;100115.84;;;6.59;88.43
30730;BME280;17476;48.458;7.928;2022-12-07T11:00:12;100118.44;;;6.69;90.60
30730;BME280;17476;48.458;7.928;2022-12-07T11:05:45;100114.19;;;6.68;86.96
30730;BME280;17476;48.458;7.928;2022-12-07T11:11:35;100105.06;;;6.73;87.88
30730;BME280;17476;48.458;7.928;2022-12-07T11:14:37;100108.59;;;6.82;88.96
30730;BME280;17476;48.458;7.928;2022-12-07T11:26:12;100092.44;;;7.56;93.59
30730;BME280;17476;48.458;7.928;2022-12-07T11:28:50;100095.00;;;7.75;90.16
30730;BME280;17476;48.458;7.928;2022-12-07T11:37:23;100080.78;;;7.97;83.74
30730;BME280;17476;48.458;7.928;2022-12-07T11:39:59;100081.28;;;8.10;82.82
30730;BME280;17476;48.458;7.928;2022-12-07T11:42:41;100068.47;;;8.27;85.43
30730;BME280;17476;48.458;7.928;2022-12-07T11:45:20;100074.63;;;8.26;77.13
30730;BME280;17476;48.458;7.928;2022-12-07T11:48:23;100063.53;;;8.51;82.77
30730;BME280;17476;48.458;7.928;2022-12-07T11:50:54;100060.22;;;8.77;80.55
30730;BME280;17476;48.458;7.928;2022-12-07T11:53:46;100048.72;;;9.05;77.78
30730;BME280;17476;48.458;7.928;2022-12-07T11:56:19;100051.34;;;8.69;68.44
30730;BME280;17476;48.458;7.928;2022-12-07T12:06:22;100045.97;;;8.53;72.25
30730;BME280;17476;48.458;7.928;2022-12-07T12:12:04;100035.38;;;9.08;72.11
30730;BME280;17476;48.458;7.928;2022-12-07T12:17:47;100036.75;;;9.20;70.85
30730;BME280;17476;48.458;7.928;2022-12-07T12:23:01;100034.25;;;9.11;66.44
30730;BME280;17476;48.458;7.928;2022-12-07T12:28:04;100026.09;;;8.88;65.77
30730;BME280;17476;48.458;7.928;2022-12-07T12:30:36;100025.91;;;9.07;66.85
30730;BME280;17476;48.458;7.928;2022-12-07T12:33:29;100013.44;;;9.19;67.54
30730;BME280;17476;48.458;7.928;2022-12-07T12:52:45;100007.81;;;9.57;71.66
30730;BME280;17476;48.458;7.928;2022-12-07T12:55:52;100007.28;;;9.54;70.60
30730;BME280;17476;48.458;7.928;2022-12-07T13:03:54;99994.38;;;9.52;70.77
30730;BME280;17476;48.458;7.928;2022-12-07T13:08:58;99994.19;;;9.46;65.22
30730;BME280;17476;48.458;7.928;2022-12-07T13:11:43;99994.16;;;9.38;66.74
30730;BME280;17476;48.458;7.928;2022-12-07T13:20:03;99973.94;;;9.74;70.56
30730;BME280;17476;48.458;7.928;2022-12-07T13:25:29;99970.53;;;9.81;72.21
30730;BME280;17476;48.458;7.928;2022-12-07T13:28:16;99976.56;;;9.48;64.43
30730;BME280;17476;48.458;7.928;2022-12-07T13:33:28;99970.84;;;9.78;71.98
30730;BME280;17476;48.458;7.928;2022-12-07T13:35:55;99968.22;;;9.70;69.06
30730;BME280;17476;48.458;7.928;2022-12-07T13:38:35;99968.31;;;9.61;73.17
30730;BME280;17476;48.458;7.928;2022-12-07T13:41:16;99969.50;;;9.66;72.06
30730;BME280;17476;48.458;7.928;2022-12-07T13:43:51;99962.09;;;9.27;66.22
30730;BME280;17476;48.458;7.928;2022-12-07T13:46:26;99957.75;;;9.28;71.43
30730;BME280;17476;48.458;7.928;2022-12-07T13:48:55;99955.28;;;9.35;74.36
30730;BME280;17476;48.458;7.928;2022-12-07T13:51:24;99949.25;;;9.34;75.27
30730;BME280;17476;48.458;7.928;2022-12-07T13:54:00;99954.66;;;9.33;74.29
30730;BME280;17476;48.458;7.928;2022-12-07T13:56:35;99952.78;;;9.17;71.06
30730;BME280;17476;48.458;7.928;2022-12-07T13:59:02;99944.69;;;9.02;74.60
30730;BME280;17476;48.458;7.928;2022-12-07T14:01:35;99949.91;;;9.02;72.84
30730;BME280;17476;48.458;7.928;2022-12-07T14:04:35;99953.28;;;8.94;70.62
30730;BME280;17476;48.458;7.928;2022-12-07T14:07:27;99958.91;;;8.82;71.65
30730;BME280;17476;48.458;7.928;2022-12-07T14:12:21;99962.59;;;8.79;72.83
30730;BME280;17476;48.458;7.928;2022-12-07T14:14:48;99962.25;;;8.74;76.62
30730;BME280;17476;48.458;7.928;2022-12-07T14:21:16;99961.28;;;8.57;77.85
30730;BME280;17476;48.458;7.928;2022-12-07T14:23:44;99956.75;;;8.59;76.88
30730;BME280;17476;48.458;7.928;2022-12-07T14:27:15;99963.09;;;8.57;78.07
30730;BME280;17476;48.458;7.928;2022-12-07T14:29:42;99964.66;;;8.50;79.12
30730;BME280;17476;48.458;7.928;2022-12-07T14:32:29;99963.84;;;8.49;78.85
30730;BME280;17476;48.458;7.928;2022-12-07T14:35:01;99954.97;;;8.42;78.34
30730;BME280;17476;48.458;7.928;2022-12-07T15:15:21;99965.69;;;7.38;82.00
30730;BME280;17476;48.458;7.928;2022-12-07T15:17:47;99960.63;;;7.27;82.34
30730;BME280;17476;48.458;7.928;2022-12-07T15:20:15;99961.91;;;7.14;84.87
30730;BME280;17476;48.458;7.928;2022-12-07T15:22:42;99952.47;;;7.13;84.90
30730;BME280;17476;48.458;7.928;2022-12-07T15:25:12;99961.09;;;7.13;85.43
30730;BME280;17476;48.458;7.928;2022-12-07T15:27:38;99951.50;;;7.14;84.50
30730;BME280;17476;48.458;7.928;2022-12-07T15:30:05;99957.38;;;7.16;84.95
30730;BME280;17476;48.458;7.928;2022-12-07T15:32:31;99964.22;;;7.17;84.91
30730;BME280;17476;48.458;7.928;2022-12-07T15:34:57;99955.59;;;7.16;82.91
30730;BME280;17476;48.458;7.928;2022-12-07T15:37:23;99957.28;;;7.07;83.60
30730;BME280;17476;48.458;7.928;2022-12-07T15:39:48;99961.81;;;7.05;83.78
30730;BME280;17476;48.458;7.928;2022-12-07T15:42:14;99960.72;;;6.98;84.21
30730;BME280;17476;48.458;7.928;2022-12-07T15:44:40;99967.00;;;6.96;84.43
30730;BME280;17476;48.458;7.928;2022-12-07T15:50:00;99968.00;;;6.85;84.69
30730;BME280;17476;48.458;7.928;2022-12-07T15:52:26;99963.75;;;6.74;85.87
30730;BME280;17476;48.458;7.928;2022-12-07T15:54:52;99960.63;;;6.71;86.03
30730;BME280;17476;48.458;7.928;2022-12-07T15:57:17;99959.25;;;6.67;87.14
30730;BME280;17476;48.458;7.928;2022-12-07T15:59:43;99962.78;;;6.56;87.63
30730;BME280;17476;48.458;7.928;2022-12-07T16:02:10;99953.22;;;6.56;87.45
30730;BME280;17476;48.458;7.928;2022-12-07T16:04:36;99956.94;;;6.54;87.75
30730;BME280;17476;48.458;7.928;2022-12-07T16:07:02;99958.28;;;6.48;87.08
30730;BME280;17476;48.458;7.928;2022-12-07T16:09:28;99958.81;;;6.42;87.59
30730;BME280;17476;48.458;7.928;2022-12-07T16:11:54;99956.94;;;6.44;87.52
30730;BME280;17476;48.458;7.928;2022-12-07T16:14:21;99960.75;;;6.40;88.15
30730;BME280;17476;48.458;7.928;2022-12-07T16:16:47;99962.69;;;6.38;88.71
30730;BME280;17476;48.458;7.928;2022-12-07T16:19:13;99953.50;;;6.34;87.22
30730;BME280;17476;48.458;7.928;2022-12-07T16:21:40;99956.78;;;6.26;88.64
30730;BME280;17476;48.458;7.928;2022-12-07T16:24:07;99954.03;;;6.28;88.78
30730;BME280;17476;48.458;7.928;2022-12-07T16:26:33;99956.91;;;6.25;88.39